sensor_id;sensor_type;location;lat;lon;timestamp;pressure;altitude;pressure_sealevel;temperature;humidity
54308;BME280;40208;39.778;2.710;2024-02-16T00:00:42;101223.22;;;11.00;100.00
54308;BME280;40208;39.778;2.710;2024-02-16T00:03:29;101413.91;;;12.48;100.00
54308;BME280;40208;39.778;2.710;2024-02-16T00:06:13;101172.53;;;10.85;100.00
54308;BME280;40208;39.778;2.710;2024-02-16T00:08:58;101178.44;;;10.91;100.00
54308;BME280;40208;39.778;2.710;2024-02-16T00:11:42;101115.09;;;10.82;100.00
54308;BME280;40208;39.778;2.710;2024-02-16T00:14:27;101389.97;;;12.27;100.00
54308;BME280;40208;39.778;2.710;2024-02-16T00:17:12;101029.06;;;9.98;100.00
54308;BME280;40208;39.778;2.710;2024-02-16T00:19:57;101339.53;;;11.60;100.00
54308;BME280;40208;39.778;2.710;2024-02-16T00:22:42;101225.44;;;11.11;100.00
54308;BME280;40208;39.778;2.710;2024-02-16T00:25:27;101400.09;;;12.40;100.00
54308;BME280;40208;39.778;2.710;2024-02-16T00:28:11;101336.13;;;12.21;100.00
54308;BME280;40208;39.778;2.710;2024-02-16T00:30:56;101221.81;;;11.14;100.00
54308;BME280;40208;39.778;2.710;2024-02-16T00:33:41;101351.88;;;11.83;100.00
54308;BME280;40208;39.778;2.710;2024-02-16T00:36:26;101374.63;;;12.12;100.00
54308;BME280;40208;39.778;2.710;2024-02-16T00:39:12;101387.63;;;12.40;100.00
54308;BME280;40208;39.778;2.710;2024-02-16T00:41:56;101393.16;;;12.36;100.00
54308;BME280;40208;39.778;2.710;2024-02-16T00:44:41;101284.16;;;11.70;100.00
54308;BME280;40208;39.778;2.710;2024-02-16T00:47:26;101278.16;;;11.44;100.00
54308;BME280;40208;39.778;2.710;2024-02-16T00:50:11;101300.78;;;11.54;100.00
54308;BME280;40208;39.778;2.710;2024-02-16T00:52:56;101223.81;;;11.51;100.00
54308;BME280;40208;39.778;2.710;2024-02-16T00:55:40;101287.97;;;11.20;100.00
54308;BME280;40208;39.778;2.710;2024-02-16T00:58:26;101256.19;;;11.39;100.00
54308;BME280;40208;39.778;2.710;2024-02-16T01:01:11;101367.06;;;12.23;100.00
54308;BME280;40208;39.778;2.710;2024-02-16T01:03:56;101350.97;;;12.06;100.00
54308;BME280;40208;39.778;2.710;2024-02-16T01:06:41;101246.75;;;11.74;100.00
54308;BME280;40208;39.778;2.710;2024-02-16T01:09:26;101173.00;;;10.94;100.00
54308;BME280;40208;39.778;2.710;2024-02-16T01:12:11;101301.91;;;11.49;100.00
54308;BME280;40208;39.778;2.710;2024-02-16T01:14:56;101358.34;;;11.77;100.00
54308;BME280;40208;39.778;2.710;2024-02-16T01:17:40;101178.03;;;10.80;100.00
54308;BME280;40208;39.778;2.710;2024-02-16T01:20:25;101293.44;;;10.93;100.00
54308;BME280;40208;39.778;2.710;2024-02-16T01:23:10;101164.25;;;10.70;100.00
54308;BME280;40208;39.778;2.710;2024-02-16T01:25:55;101314.69;;;10.93;100.00
54308;BME280;40208;39.778;2.710;2024-02-16T01:28:40;101339.75;;;11.32;100.00
54308;BME280;40208;39.778;2.710;2024-02-16T01:31:25;101279.63;;;11.29;100.00
54308;BME280;40208;39.778;2.710;2024-02-16T01:34:09;101280.94;;;11.19;100.00
54308;BME280;40208;39.778;2.710;2024-02-16T01:36:54;101342.75;;;11.68;100.00
54308;BME280;40208;39.778;2.710;2024-02-16T01:39:39;101250.28;;;11.32;100.00
54308;BME280;40208;39.778;2.710;2024-02-16T01:42:24;101180.50;;;10.14;100.00
54308;BME280;40208;39.778;2.710;2024-02-16T01:45:09;101294.72;;;10.59;100.00
54308;BME280;40208;39.778;2.710;2024-02-16T01:47:55;101369.75;;;11.35;100.00
54308;BME280;40208;39.778;2.710;2024-02-16T01:50:42;101403.31;;;11.60;100.00
54308;BME280;40208;39.778;2.710;2024-02-16T01:53:28;101222.84;;;10.88;100.00
54308;BME280;40208;39.778;2.710;2024-02-16T01:56:13;101153.75;;;10.44;100.00
54308;BME280;40208;39.778;2.710;2024-02-16T01:58:57;101243.50;;;10.79;100.00
54308;BME280;40208;39.778;2.710;2024-02-16T02:01:43;101294.66;;;11.08;100.00
54308;BME280;40208;39.778;2.710;2024-02-16T02:04:27;101367.94;;;11.58;100.00
54308;BME280;40208;39.778;2.710;2024-02-16T02:07:13;101365.75;;;11.47;100.00
54308;BME280;40208;39.778;2.710;2024-02-16T02:09:58;101024.75;;;8.98;100.00
54308;BME280;40208;39.778;2.710;2024-02-16T02:12:43;101232.47;;;10.68;100.00
54308;BME280;40208;39.778;2.710;2024-02-16T02:15:28;101060.00;;;9.25;100.00
54308;BME280;40208;39.778;2.710;2024-02-16T02:18:13;101192.34;;;10.52;100.00
54308;BME280;40208;39.778;2.710;2024-02-16T02:20:58;101218.53;;;10.61;100.00
54308;BME280;40208;39.778;2.710;2024-02-16T02:23:43;101316.53;;;10.91;100.00
54308;BME280;40208;39.778;2.710;2024-02-16T02:26:28;101303.53;;;11.07;100.00
54308;BME280;40208;39.778;2.710;2024-02-16T02:29:13;101352.19;;;11.31;100.00
54308;BME280;40208;39.778;2.710;2024-02-16T02:31:58;101108.78;;;9.93;100.00
54308;BME280;40208;39.778;2.710;2024-02-16T02:34:43;101352.84;;;11.36;100.00
54308;BME280;40208;39.778;2.710;2024-02-16T02:37:27;101310.91;;;11.22;100.00
54308;BME280;40208;39.778;2.710;2024-02-16T02:40:13;101248.63;;;10.84;100.00
54308;BME280;40208;39.778;2.710;2024-02-16T02:42:57;101232.50;;;10.67;100.00
54308;BME280;40208;39.778;2.710;2024-02-16T02:45:42;101224.06;;;10.79;100.00
54308;BME280;40208;39.778;2.710;2024-02-16T02:48:27;101314.09;;;11.09;100.00
54308;BME280;40208;39.778;2.710;2024-02-16T02:51:12;101209.75;;;10.83;100.00
54308;BME280;40208;39.778;2.710;2024-02-16T02:53:56;101056.72;;;9.67;100.00
54308;BME280;40208;39.778;2.710;2024-02-16T02:56:41;101160.47;;;10.05;100.00
54308;BME280;40208;39.778;2.710;2024-02-16T02:59:27;101220.72;;;10.74;100.00
54308;BME280;40208;39.778;2.710;2024-02-16T03:02:11;101330.59;;;11.39;100.00
54308;BME280;40208;39.778;2.710;2024-02-16T03:04:56;101132.84;;;10.36;100.00
54308;BME280;40208;39.778;2.710;2024-02-16T03:07:41;101156.50;;;10.42;100.00
54308;BME280;40208;39.778;2.710;2024-02-16T03:10:26;101118.75;;;10.10;100.00
54308;BME280;40208;39.778;2.710;2024-02-16T03:13:11;101120.06;;;10.46;100.00
54308;BME280;40208;39.778;2.710;2024-02-16T03:15:57;101184.00;;;10.63;100.00
54308;BME280;40208;39.778;2.710;2024-02-16T03:18:42;101218.78;;;10.55;100.00
54308;BME280;40208;39.778;2.710;2024-02-16T03:21:27;100959.63;;;9.18;100.00
54308;BME280;40208;39.778;2.710;2024-02-16T03:24:12;101161.44;;;10.51;100.00
54308;BME280;40208;39.778;2.710;2024-02-16T03:26:58;101114.66;;;10.49;100.00
54308;BME280;40208;39.778;2.710;2024-02-16T03:29:42;100893.16;;;9.25;100.00
54308;BME280;40208;39.778;2.710;2024-02-16T03:32:27;101141.78;;;10.08;100.00
54308;BME280;40208;39.778;2.710;2024-02-16T03:35:12;101118.41;;;10.19;100.00
54308;BME280;40208;39.778;2.710;2024-02-16T03:37:56;101071.47;;;9.98;100.00
54308;BME280;40208;39.778;2.710;2024-02-16T03:40:41;100972.84;;;9.43;100.00
54308;BME280;40208;39.778;2.710;2024-02-16T03:43:26;101085.00;;;9.92;100.00
54308;BME280;40208;39.778;2.710;2024-02-16T03:46:11;101094.19;;;9.82;100.00
54308;BME280;40208;39.778;2.710;2024-02-16T03:48:56;101327.03;;;10.94;100.00
54308;BME280;40208;39.778;2.710;2024-02-16T03:51:41;101237.59;;;10.49;100.00
54308;BME280;40208;39.778;2.710;2024-02-16T03:54:26;101238.97;;;10.59;100.00
54308;BME280;40208;39.778;2.710;2024-02-16T03:57:10;101174.47;;;10.34;100.00
54308;BME280;40208;39.778;2.710;2024-02-16T03:59:56;101238.41;;;10.75;100.00
54308;BME280;40208;39.778;2.710;2024-02-16T04:02:41;101040.91;;;9.66;100.00
54308;BME280;40208;39.778;2.710;2024-02-16T04:05:26;101242.25;;;10.90;100.00
54308;BME280;40208;39.778;2.710;2024-02-16T04:08:15;101188.06;;;10.72;100.00
54308;BME280;40208;39.778;2.710;2024-02-16T04:11:00;101074.78;;;10.28;100.00
54308;BME280;40208;39.778;2.710;2024-02-16T04:13:45;101058.22;;;9.98;100.00
54308;BME280;40208;39.778;2.710;2024-02-16T04:16:30;101248.19;;;10.96;100.00
54308;BME280;40208;39.778;2.710;2024-02-16T04:19:15;101155.41;;;10.23;100.00
54308;BME280;40208;39.778;2.710;2024-02-16T04:22:00;100961.41;;;9.42;100.00
54308;BME280;40208;39.778;2.710;2024-02-16T04:24:45;101185.72;;;10.86;100.00
54308;BME280;40208;39.778;2.710;2024-02-16T04:27:30;101293.94;;;11.49;100.00
54308;BME280;40208;39.778;2.710;2024-02-16T04:30:15;101180.03;;;10.73;100.00
54308;BME280;40208;39.778;2.710;2024-02-16T04:33:00;101091.06;;;9.94;100.00
54308;BME280;40208;39.778;2.710;2024-02-16T04:35:45;101116.69;;;10.18;100.00
54308;BME280;40208;39.778;2.710;2024-02-16T04:38:32;101158.97;;;10.69;100.00
54308;BME280;40208;39.778;2.710;2024-02-16T04:41:20;101194.44;;;10.90;100.00
54308;BME280;40208;39.778;2.710;2024-02-16T04:44:04;101276.09;;;11.51;100.00
54308;BME280;40208;39.778;2.710;2024-02-16T04:46:50;101291.31;;;11.25;100.00
54308;BME280;40208;39.778;2.710;2024-02-16T04:49:37;101203.44;;;10.64;100.00
54308;BME280;40208;39.778;2.710;2024-02-16T04:52:22;101348.00;;;11.48;100.00
54308;BME280;40208;39.778;2.710;2024-02-16T04:55:07;101219.28;;;10.42;100.00
54308;BME280;40208;39.778;2.710;2024-02-16T04:57:52;101262.03;;;10.81;100.00
54308;BME280;40208;39.778;2.710;2024-02-16T05:00:37;101209.13;;;10.53;100.00
54308;BME280;40208;39.778;2.710;2024-02-16T05:03:23;101128.44;;;9.88;100.00
54308;BME280;40208;39.778;2.710;2024-02-16T05:06:08;101230.03;;;10.62;100.00
54308;BME280;40208;39.778;2.710;2024-02-16T05:08:56;101189.84;;;10.71;100.00
54308;BME280;40208;39.778;2.710;2024-02-16T05:11:40;101102.25;;;10.26;100.00
54308;BME280;40208;39.778;2.710;2024-02-16T05:14:25;101211.84;;;10.75;100.00
54308;BME280;40208;39.778;2.710;2024-02-16T05:17:10;101340.28;;;11.41;100.00
54308;BME280;40208;39.778;2.710;2024-02-16T05:19:57;101063.69;;;10.17;100.00
54308;BME280;40208;39.778;2.710;2024-02-16T05:22:45;101213.06;;;11.10;100.00
54308;BME280;40208;39.778;2.710;2024-02-16T05:25:30;101314.78;;;11.80;100.00
54308;BME280;40208;39.778;2.710;2024-02-16T05:28:15;101028.84;;;10.26;100.00
54308;BME280;40208;39.778;2.710;2024-02-16T05:31:13;101170.97;;;11.01;100.00
54308;BME280;40208;39.778;2.710;2024-02-16T05:33:59;101164.84;;;10.77;100.00
54308;BME280;40208;39.778;2.710;2024-02-16T05:36:44;101184.50;;;10.73;100.00
54308;BME280;40208;39.778;2.710;2024-02-16T05:39:29;101263.75;;;11.50;100.00
54308;BME280;40208;39.778;2.710;2024-02-16T05:42:16;101269.59;;;11.58;100.00
54308;BME280;40208;39.778;2.710;2024-02-16T05:45:01;101190.63;;;10.75;100.00
54308;BME280;40208;39.778;2.710;2024-02-16T05:47:46;101193.13;;;11.00;100.00
54308;BME280;40208;39.778;2.710;2024-02-16T05:50:30;101327.22;;;11.79;100.00
54308;BME280;40208;39.778;2.710;2024-02-16T05:53:15;101218.66;;;11.26;100.00
54308;BME280;40208;39.778;2.710;2024-02-16T05:56:00;101191.91;;;11.09;100.00
54308;BME280;40208;39.778;2.710;2024-02-16T05:58:45;101256.47;;;11.11;100.00
54308;BME280;40208;39.778;2.710;2024-02-16T06:01:31;101195.78;;;10.78;100.00
54308;BME280;40208;39.778;2.710;2024-02-16T06:04:16;101132.56;;;10.66;100.00
54308;BME280;40208;39.778;2.710;2024-02-16T06:07:01;101193.50;;;11.13;100.00
54308;BME280;40208;39.778;2.710;2024-02-16T06:09:45;101233.09;;;11.41;100.00
54308;BME280;40208;39.778;2.710;2024-02-16T06:12:30;101264.09;;;11.62;100.00
54308;BME280;40208;39.778;2.710;2024-02-16T06:15:15;101241.38;;;11.33;100.00
54308;BME280;40208;39.778;2.710;2024-02-16T06:18:01;101103.03;;;10.29;100.00
54308;BME280;40208;39.778;2.710;2024-02-16T06:20:46;101216.44;;;10.70;100.00
54308;BME280;40208;39.778;2.710;2024-02-16T06:23:30;101323.69;;;11.57;100.00
54308;BME280;40208;39.778;2.710;2024-02-16T06:26:15;101231.13;;;10.80;100.00
54308;BME280;40208;39.778;2.710;2024-02-16T06:29:00;101268.28;;;10.80;100.00
54308;BME280;40208;39.778;2.710;2024-02-16T06:31:48;101148.16;;;10.04;100.00
54308;BME280;40208;39.778;2.710;2024-02-16T06:34:33;101335.06;;;11.38;100.00
54308;BME280;40208;39.778;2.710;2024-02-16T06:37:18;101189.19;;;10.43;100.00
54308;BME280;40208;39.778;2.710;2024-02-16T06:40:03;101197.97;;;10.45;100.00
54308;BME280;40208;39.778;2.710;2024-02-16T06:42:48;101167.09;;;10.42;100.00
54308;BME280;40208;39.778;2.710;2024-02-16T06:45:33;101277.94;;;11.04;100.00
54308;BME280;40208;39.778;2.710;2024-02-16T06:48:18;101349.91;;;11.66;100.00
54308;BME280;40208;39.778;2.710;2024-02-16T06:51:03;101043.59;;;9.88;100.00
54308;BME280;40208;39.778;2.710;2024-02-16T06:53:48;101223.75;;;10.87;100.00
54308;BME280;40208;39.778;2.710;2024-02-16T06:56:33;101317.13;;;11.43;100.00
54308;BME280;40208;39.778;2.710;2024-02-16T06:59:18;101310.34;;;11.36;100.00
54308;BME280;40208;39.778;2.710;2024-02-16T07:02:03;101314.38;;;11.46;100.00
54308;BME280;40208;39.778;2.710;2024-02-16T07:04:48;101166.84;;;10.48;100.00
54308;BME280;40208;39.778;2.710;2024-02-16T07:07:33;101326.28;;;11.36;100.00
54308;BME280;40208;39.778;2.710;2024-02-16T07:10:20;101282.81;;;10.70;100.00
54308;BME280;40208;39.778;2.710;2024-02-16T07:13:05;101240.38;;;10.21;100.00
54308;BME280;40208;39.778;2.710;2024-02-16T07:15:50;101339.72;;;11.10;100.00
54308;BME280;40208;39.778;2.710;2024-02-16T07:18:35;101061.50;;;9.58;100.00
54308;BME280;40208;39.778;2.710;2024-02-16T07:21:20;101273.84;;;10.96;100.00
54308;BME280;40208;39.778;2.710;2024-02-16T07:24:06;101144.88;;;9.97;100.00
54308;BME280;40208;39.778;2.710;2024-02-16T07:26:53;101230.25;;;10.32;100.00
54308;BME280;40208;39.778;2.710;2024-02-16T07:29:38;101396.75;;;11.01;100.00
54308;BME280;40208;39.778;2.710;2024-02-16T07:32:23;101265.53;;;10.34;100.00
54308;BME280;40208;39.778;2.710;2024-02-16T07:35:08;101306.53;;;10.74;100.00
54308;BME280;40208;39.778;2.710;2024-02-16T07:37:54;101172.72;;;10.09;100.00
54308;BME280;40208;39.778;2.710;2024-02-16T07:40:39;101302.84;;;10.78;100.00
54308;BME280;40208;39.778;2.710;2024-02-16T07:43:24;101209.03;;;10.07;100.00
54308;BME280;40208;39.778;2.710;2024-02-16T07:46:09;101337.41;;;11.00;100.00
54308;BME280;40208;39.778;2.710;2024-02-16T07:48:54;101267.69;;;10.72;100.00
54308;BME280;40208;39.778;2.710;2024-02-16T07:51:40;101193.84;;;10.36;100.00
54308;BME280;40208;39.778;2.710;2024-02-16T07:54:24;101285.88;;;10.82;100.00
54308;BME280;40208;39.778;2.710;2024-02-16T07:57:09;101235.13;;;10.68;100.00
54308;BME280;40208;39.778;2.710;2024-02-16T07:59:54;101303.38;;;10.88;100.00
54308;BME280;40208;39.778;2.710;2024-02-16T08:02:39;101269.38;;;10.74;100.00
54308;BME280;40208;39.778;2.710;2024-02-16T08:05:26;101368.97;;;11.32;100.00
54308;BME280;40208;39.778;2.710;2024-02-16T08:08:11;101288.44;;;11.08;100.00
54308;BME280;40208;39.778;2.710;2024-02-16T08:10:56;101217.16;;;10.75;100.00
54308;BME280;40208;39.778;2.710;2024-02-16T08:13:40;101224.22;;;10.74;100.00
54308;BME280;40208;39.778;2.710;2024-02-16T08:16:28;101191.69;;;10.69;100.00
54308;BME280;40208;39.778;2.710;2024-02-16T08:19:13;101158.44;;;10.82;100.00
54308;BME280;40208;39.778;2.710;2024-02-16T08:21:58;100953.03;;;9.53;100.00
54308;BME280;40208;39.778;2.710;2024-02-16T08:24:43;101033.50;;;9.97;100.00
54308;BME280;40208;39.778;2.710;2024-02-16T08:27:30;101066.69;;;10.31;100.00
54308;BME280;40208;39.778;2.710;2024-02-16T08:30:16;101126.69;;;10.57;100.00
54308;BME280;40208;39.778;2.710;2024-02-16T08:33:01;101348.69;;;11.97;100.00
54308;BME280;40208;39.778;2.710;2024-02-16T08:35:46;101211.72;;;11.22;100.00
54308;BME280;40208;39.778;2.710;2024-02-16T08:38:31;101282.44;;;11.68;100.00
54308;BME280;40208;39.778;2.710;2024-02-16T08:41:16;101411.69;;;12.39;100.00
54308;BME280;40208;39.778;2.710;2024-02-16T08:44:01;101452.56;;;12.58;100.00
54308;BME280;40208;39.778;2.710;2024-02-16T08:46:46;101342.91;;;11.87;100.00
54308;BME280;40208;39.778;2.710;2024-02-16T08:49:33;101394.34;;;12.28;100.00
54308;BME280;40208;39.778;2.710;2024-02-16T08:52:19;101455.75;;;12.66;100.00
54308;BME280;40208;39.778;2.710;2024-02-16T08:55:05;101433.97;;;12.57;100.00
54308;BME280;40208;39.778;2.710;2024-02-16T08:57:49;101123.97;;;10.81;100.00
54308;BME280;40208;39.778;2.710;2024-02-16T09:00:35;101138.91;;;10.83;100.00
54308;BME280;40208;39.778;2.710;2024-02-16T09:03:20;101144.53;;;10.76;100.00
54308;BME280;40208;39.778;2.710;2024-02-16T09:06:05;101461.06;;;12.66;100.00
54308;BME280;40208;39.778;2.710;2024-02-16T09:08:51;101165.03;;;10.94;100.00
54308;BME280;40208;39.778;2.710;2024-02-16T09:11:36;101274.75;;;11.83;100.00
54308;BME280;40208;39.778;2.710;2024-02-16T09:14:21;101353.44;;;12.31;100.00
54308;BME280;40208;39.778;2.710;2024-02-16T09:17:06;101090.34;;;10.59;100.00
54308;BME280;40208;39.778;2.710;2024-02-16T09:19:50;101264.50;;;11.74;100.00
54308;BME280;40208;39.778;2.710;2024-02-16T09:22:35;101115.59;;;11.12;100.00
54308;BME280;40208;39.778;2.710;2024-02-16T09:25:20;101066.50;;;10.80;100.00
54308;BME280;40208;39.778;2.710;2024-02-16T09:28:05;101210.28;;;11.78;100.00
54308;BME280;40208;39.778;2.710;2024-02-16T09:30:50;101235.41;;;12.12;100.00
54308;BME280;40208;39.778;2.710;2024-02-16T09:33:35;101236.06;;;12.17;100.00
54308;BME280;40208;39.778;2.710;2024-02-16T09:36:20;101340.84;;;12.94;100.00
54308;BME280;40208;39.778;2.710;2024-02-16T09:39:05;101364.56;;;13.20;100.00
54308;BME280;40208;39.778;2.710;2024-02-16T09:41:51;101231.97;;;12.49;100.00
54308;BME280;40208;39.778;2.710;2024-02-16T09:44:36;101201.25;;;12.42;100.00
54308;BME280;40208;39.778;2.710;2024-02-16T09:47:22;101210.63;;;12.50;100.00
54308;BME280;40208;39.778;2.710;2024-02-16T09:50:09;101451.44;;;13.99;100.00
54308;BME280;40208;39.778;2.710;2024-02-16T09:52:54;101476.88;;;14.26;100.00
54308;BME280;40208;39.778;2.710;2024-02-16T09:55:41;101337.75;;;13.61;100.00
54308;BME280;40208;39.778;2.710;2024-02-16T09:58:27;101371.22;;;13.85;100.00
54308;BME280;40208;39.778;2.710;2024-02-16T10:01:19;101368.88;;;13.96;100.00
54308;BME280;40208;39.778;2.710;2024-02-16T10:04:07;101433.28;;;14.42;100.00
54308;BME280;40208;39.778;2.710;2024-02-16T10:06:52;101375.13;;;14.14;100.00
54308;BME280;40208;39.778;2.710;2024-02-16T10:09:37;101469.16;;;14.73;100.00
54308;BME280;40208;39.778;2.710;2024-02-16T10:12:22;101464.03;;;14.69;100.00
54308;BME280;40208;39.778;2.710;2024-02-16T10:15:08;101342.97;;;14.16;100.00
54308;BME280;40208;39.778;2.710;2024-02-16T10:18:04;101210.19;;;13.34;100.00
54308;BME280;40208;39.778;2.710;2024-02-16T10:20:49;101345.34;;;14.22;100.00
54308;BME280;40208;39.778;2.710;2024-02-16T10:23:34;101373.00;;;14.38;100.00
54308;BME280;40208;39.778;2.710;2024-02-16T10:26:20;101410.00;;;14.63;100.00
54308;BME280;40208;39.778;2.710;2024-02-16T10:29:11;101400.19;;;14.64;100.00
54308;BME280;40208;39.778;2.710;2024-02-16T10:31:56;101418.47;;;14.54;100.00
54308;BME280;40208;39.778;2.710;2024-02-16T10:34:41;101303.50;;;14.05;100.00
54308;BME280;40208;39.778;2.710;2024-02-16T10:37:27;101337.56;;;14.17;100.00
54308;BME280;40208;39.778;2.710;2024-02-16T10:40:13;101341.34;;;14.13;100.00
54308;BME280;40208;39.778;2.710;2024-02-16T10:43:04;101506.25;;;15.14;100.00
54308;BME280;40208;39.778;2.710;2024-02-16T10:45:49;101497.63;;;15.09;100.00
54308;BME280;40208;39.778;2.710;2024-02-16T10:48:37;101494.47;;;15.01;100.00
54308;BME280;40208;39.778;2.710;2024-02-16T10:51:34;101458.88;;;14.83;100.00
54308;BME280;40208;39.778;2.710;2024-02-16T10:54:23;101412.22;;;14.55;100.00
54308;BME280;40208;39.778;2.710;2024-02-16T10:57:08;101440.88;;;14.69;100.00
54308;BME280;40208;39.778;2.710;2024-02-16T10:59:56;101386.03;;;14.27;100.00
54308;BME280;40208;39.778;2.710;2024-02-16T11:02:54;101406.28;;;14.49;100.00
54308;BME280;40208;39.778;2.710;2024-02-16T11:05:41;101407.88;;;14.53;100.00
54308;BME280;40208;39.778;2.710;2024-02-16T11:08:37;101405.19;;;14.53;100.00
54308;BME280;40208;39.778;2.710;2024-02-16T11:11:23;101509.44;;;15.21;100.00
54308;BME280;40208;39.778;2.710;2024-02-16T11:14:17;101410.09;;;14.62;100.00
54308;BME280;40208;39.778;2.710;2024-02-16T11:17:11;101427.44;;;14.71;100.00
54308;BME280;40208;39.778;2.710;2024-02-16T11:19:59;101341.88;;;14.20;100.00
54308;BME280;40208;39.778;2.710;2024-02-16T11:22:44;101387.81;;;14.44;100.00
54308;BME280;40208;39.778;2.710;2024-02-16T11:25:32;101380.75;;;14.43;100.00
54308;BME280;40208;39.778;2.710;2024-02-16T11:28:18;101362.63;;;14.32;100.00
54308;BME280;40208;39.778;2.710;2024-02-16T11:31:03;101432.47;;;14.77;100.00
54308;BME280;40208;39.778;2.710;2024-02-16T11:33:48;101493.38;;;15.05;100.00
54308;BME280;40208;39.778;2.710;2024-02-16T11:36:33;101315.66;;;14.11;100.00
54308;BME280;40208;39.778;2.710;2024-02-16T11:39:20;101438.34;;;14.83;100.00
54308;BME280;40208;39.778;2.710;2024-02-16T11:42:05;101414.00;;;14.72;100.00
54308;BME280;40208;39.778;2.710;2024-02-16T11:44:54;101526.25;;;15.40;100.00
54308;BME280;40208;39.778;2.710;2024-02-16T11:47:39;101471.34;;;15.00;100.00
54308;BME280;40208;39.778;2.710;2024-02-16T11:50:26;101526.16;;;15.42;100.00
54308;BME280;40208;39.778;2.710;2024-02-16T11:53:17;101492.28;;;15.25;100.00
54308;BME280;40208;39.778;2.710;2024-02-16T11:56:05;101473.03;;;15.18;100.00
54308;BME280;40208;39.778;2.710;2024-02-16T11:58:51;101470.69;;;15.12;100.00
54308;BME280;40208;39.778;2.710;2024-02-16T12:01:35;101368.38;;;14.59;100.00
54308;BME280;40208;39.778;2.710;2024-02-16T12:04:21;101518.66;;;15.48;100.00
54308;BME280;40208;39.778;2.710;2024-02-16T12:07:06;101481.34;;;15.30;100.00
54308;BME280;40208;39.778;2.710;2024-02-16T12:10:01;101519.53;;;15.49;100.00
54308;BME280;40208;39.778;2.710;2024-02-16T12:12:47;101489.47;;;15.28;100.00
54308;BME280;40208;39.778;2.710;2024-02-16T12:15:32;101493.88;;;15.29;100.00
54308;BME280;40208;39.778;2.710;2024-02-16T12:18:25;101397.72;;;14.77;100.00
54308;BME280;40208;39.778;2.710;2024-02-16T12:21:09;101337.00;;;14.46;100.00
54308;BME280;40208;39.778;2.710;2024-02-16T12:23:54;101505.38;;;15.47;100.00
54308;BME280;40208;39.778;2.710;2024-02-16T12:26:39;101521.59;;;15.44;100.00
54308;BME280;40208;39.778;2.710;2024-02-16T12:29:25;101435.66;;;15.01;100.00
54308;BME280;40208;39.778;2.710;2024-02-16T12:32:10;101240.78;;;13.62;100.00
54308;BME280;40208;39.778;2.710;2024-02-16T12:34:55;101227.44;;;13.62;100.00
54308;BME280;40208;39.778;2.710;2024-02-16T12:37:42;101147.16;;;13.14;100.00
54308;BME280;40208;39.778;2.710;2024-02-16T12:40:27;101475.88;;;15.15;100.00
54308;BME280;40208;39.778;2.710;2024-02-16T12:43:13;101480.91;;;15.21;100.00
54308;BME280;40208;39.778;2.710;2024-02-16T12:45:58;100985.03;;;12.18;100.00
54308;BME280;40208;39.778;2.710;2024-02-16T12:48:46;101330.66;;;14.31;100.00
54308;BME280;40208;39.778;2.710;2024-02-16T12:51:31;101302.47;;;13.90;100.00
54308;BME280;40208;39.778;2.710;2024-02-16T12:54:16;101259.16;;;13.85;100.00
54308;BME280;40208;39.778;2.710;2024-02-16T12:57:12;101268.88;;;13.69;100.00
54308;BME280;40208;39.778;2.710;2024-02-16T12:59:58;101326.41;;;14.09;100.00
54308;BME280;40208;39.778;2.710;2024-02-16T13:02:43;101533.13;;;15.29;100.00
54308;BME280;40208;39.778;2.710;2024-02-16T13:05:28;101279.88;;;13.80;100.00
54308;BME280;40208;39.778;2.710;2024-02-16T13:08:15;101337.97;;;14.10;100.00
54308;BME280;40208;39.778;2.710;2024-02-16T13:11:00;101346.03;;;14.26;100.00
54308;BME280;40208;39.778;2.710;2024-02-16T13:13:48;101511.56;;;15.32;100.00
54308;BME280;40208;39.778;2.710;2024-02-16T13:16:33;101326.50;;;14.08;100.00
54308;BME280;40208;39.778;2.710;2024-02-16T13:19:18;101516.13;;;15.30;100.00
54308;BME280;40208;39.778;2.710;2024-02-16T13:22:02;101047.31;;;12.50;100.00
54308;BME280;40208;39.778;2.710;2024-02-16T13:24:47;101441.03;;;14.83;100.00
54308;BME280;40208;39.778;2.710;2024-02-16T13:27:32;101281.44;;;13.84;100.00
54308;BME280;40208;39.778;2.710;2024-02-16T13:30:17;101217.56;;;13.46;100.00
54308;BME280;40208;39.778;2.710;2024-02-16T13:33:05;101124.06;;;12.78;100.00
54308;BME280;40208;39.778;2.710;2024-02-16T13:35:50;101387.91;;;14.25;100.00
54308;BME280;40208;39.778;2.710;2024-02-16T13:38:34;101261.47;;;13.56;100.00
54308;BME280;40208;39.778;2.710;2024-02-16T13:41:19;101298.09;;;13.72;100.00
54308;BME280;40208;39.778;2.710;2024-02-16T13:44:06;101379.66;;;14.30;100.00
54308;BME280;40208;39.778;2.710;2024-02-16T13:46:53;101267.94;;;13.70;100.00
54308;BME280;40208;39.778;2.710;2024-02-16T13:49:38;101247.19;;;13.40;100.00
54308;BME280;40208;39.778;2.710;2024-02-16T13:52:23;101241.81;;;13.23;100.00
54308;BME280;40208;39.778;2.710;2024-02-16T13:55:08;101153.75;;;12.70;100.00
54308;BME280;40208;39.778;2.710;2024-02-16T13:57:54;101226.97;;;13.17;100.00
54308;BME280;40208;39.778;2.710;2024-02-16T14:00:39;101525.09;;;15.11;100.00
54308;BME280;40208;39.778;2.710;2024-02-16T14:03:25;101150.00;;;12.75;100.00
54308;BME280;40208;39.778;2.710;2024-02-16T14:06:12;101555.16;;;15.16;100.00
54308;BME280;40208;39.778;2.710;2024-02-16T14:08:58;101458.41;;;14.75;100.00
54308;BME280;40208;39.778;2.710;2024-02-16T14:11:45;101047.78;;;12.22;100.00
54308;BME280;40208;39.778;2.710;2024-02-16T14:14:30;101465.38;;;14.95;100.00